sensor_id;sensor_type;location;lat;lon;timestamp;temperature;humidity
65568;DHT22;52211;50.154;8.682;2024-01-30T00:00:42;6.00;61.30
65568;DHT22;52211;50.154;8.682;2024-01-30T00:03:08;6.00;61.30
65568;DHT22;52211;50.154;8.682;2024-01-30T00:05:35;5.90;61.30
65568;DHT22;52211;50.154;8.682;2024-01-30T00:08:05;5.90;61.30
65568;DHT22;52211;50.154;8.682;2024-01-30T00:10:39;5.90;61.50
65568;DHT22;52211;50.154;8.682;2024-01-30T00:13:07;5.90;61.40
65568;DHT22;52211;50.154;8.682;2024-01-30T00:15:34;5.90;61.40
65568;DHT22;52211;50.154;8.682;2024-01-30T00:18:04;5.80;61.30
65568;DHT22;52211;50.154;8.682;2024-01-30T00:20:33;5.80;61.40
65568;DHT22;52211;50.154;8.682;2024-01-30T00:23:04;5.80;61.50
65568;DHT22;52211;50.154;8.682;2024-01-30T00:25:33;5.70;61.40
65568;DHT22;52211;50.154;8.682;2024-01-30T00:28:02;5.70;62.10
65568;DHT22;52211;50.154;8.682;2024-01-30T00:30:35;5.60;61.50
65568;DHT22;52211;50.154;8.682;2024-01-30T00:33:04;5.60;61.60
65568;DHT22;52211;50.154;8.682;2024-01-30T00:35:36;5.60;61.60
65568;DHT22;52211;50.154;8.682;2024-01-30T00:38:03;5.60;61.70
65568;DHT22;52211;50.154;8.682;2024-01-30T00:40:34;5.60;61.70
65568;DHT22;52211;50.154;8.682;2024-01-30T00:43:03;5.50;61.70
65568;DHT22;52211;50.154;8.682;2024-01-30T00:45:33;5.50;61.70
65568;DHT22;52211;50.154;8.682;2024-01-30T00:48:02;5.50;61.70
65568;DHT22;52211;50.154;8.682;2024-01-30T00:50:29;5.50;61.80
65568;DHT22;52211;50.154;8.682;2024-01-30T00:52:59;5.50;61.80
65568;DHT22;52211;50.154;8.682;2024-01-30T00:55:25;5.50;61.80
65568;DHT22;52211;50.154;8.682;2024-01-30T00:57:52;5.50;61.80
65568;DHT22;52211;50.154;8.682;2024-01-30T01:00:19;5.50;61.80
65568;DHT22;52211;50.154;8.682;2024-01-30T01:02:47;5.40;61.80
65568;DHT22;52211;50.154;8.682;2024-01-30T01:05:16;5.40;61.80
65568;DHT22;52211;50.154;8.682;2024-01-30T01:07:44;5.40;61.90
65568;DHT22;52211;50.154;8.682;2024-01-30T01:10:12;5.40;61.90
65568;DHT22;52211;50.154;8.682;2024-01-30T01:12:40;5.30;61.80
65568;DHT22;52211;50.154;8.682;2024-01-30T01:15:08;5.30;61.90
65568;DHT22;52211;50.154;8.682;2024-01-30T01:17:38;5.30;61.90
65568;DHT22;52211;50.154;8.682;2024-01-30T01:20:06;5.30;61.90
65568;DHT22;52211;50.154;8.682;2024-01-30T01:22:37;5.30;61.90
65568;DHT22;52211;50.154;8.682;2024-01-30T01:25:08;5.20;61.90
65568;DHT22;52211;50.154;8.682;2024-01-30T01:27:39;5.20;61.90
65568;DHT22;52211;50.154;8.682;2024-01-30T01:30:12;5.20;61.90
65568;DHT22;52211;50.154;8.682;2024-01-30T01:32:44;5.20;62.00
65568;DHT22;52211;50.154;8.682;2024-01-30T01:35:19;5.20;62.00
65568;DHT22;52211;50.154;8.682;2024-01-30T01:37:46;5.20;62.00
65568;DHT22;52211;50.154;8.682;2024-01-30T01:40:25;5.20;62.00
65568;DHT22;52211;50.154;8.682;2024-01-30T01:42:54;5.20;62.10
65568;DHT22;52211;50.154;8.682;2024-01-30T01:45:24;5.10;62.00
65568;DHT22;52211;50.154;8.682;2024-01-30T01:47:54;5.10;62.00
65568;DHT22;52211;50.154;8.682;2024-01-30T01:50:21;5.10;62.10
65568;DHT22;52211;50.154;8.682;2024-01-30T01:52:55;5.10;62.10
65568;DHT22;52211;50.154;8.682;2024-01-30T01:55:24;5.20;62.20
65568;DHT22;52211;50.154;8.682;2024-01-30T01:57:55;5.20;62.20
65568;DHT22;52211;50.154;8.682;2024-01-30T02:00:25;5.20;62.20
65568;DHT22;52211;50.154;8.682;2024-01-30T02:02:54;5.20;62.20
65568;DHT22;52211;50.154;8.682;2024-01-30T02:05:25;5.20;62.30
65568;DHT22;52211;50.154;8.682;2024-01-30T02:07:53;5.10;62.20
65568;DHT22;52211;50.154;8.682;2024-01-30T02:10:21;5.10;62.20
65568;DHT22;52211;50.154;8.682;2024-01-30T02:12:50;5.10;62.20
65568;DHT22;52211;50.154;8.682;2024-01-30T02:15:20;5.00;62.20
65568;DHT22;52211;50.154;8.682;2024-01-30T02:17:49;5.00;62.20
65568;DHT22;52211;50.154;8.682;2024-01-30T02:20:16;5.00;62.30
65568;DHT22;52211;50.154;8.682;2024-01-30T02:22:46;5.00;62.30
65568;DHT22;52211;50.154;8.682;2024-01-30T02:25:16;5.00;62.30
65568;DHT22;52211;50.154;8.682;2024-01-30T02:27:47;4.90;62.30
65568;DHT22;52211;50.154;8.682;2024-01-30T02:30:16;4.90;62.30
65568;DHT22;52211;50.154;8.682;2024-01-30T02:32:45;4.90;62.30
65568;DHT22;52211;50.154;8.682;2024-01-30T02:35:12;4.90;62.30
65568;DHT22;52211;50.154;8.682;2024-01-30T02:37:44;4.80;62.20
65568;DHT22;52211;50.154;8.682;2024-01-30T02:40:11;4.80;62.20
65568;DHT22;52211;50.154;8.682;2024-01-30T02:42:39;4.80;62.30
65568;DHT22;52211;50.154;8.682;2024-01-30T02:45:10;4.80;62.30
65568;DHT22;52211;50.154;8.682;2024-01-30T02:47:39;4.80;62.30
65568;DHT22;52211;50.154;8.682;2024-01-30T02:50:13;4.80;62.40
65568;DHT22;52211;50.154;8.682;2024-01-30T02:52:43;4.80;62.40
65568;DHT22;52211;50.154;8.682;2024-01-30T02:55:15;4.80;62.40
65568;DHT22;52211;50.154;8.682;2024-01-30T02:57:45;4.80;62.50
65568;DHT22;52211;50.154;8.682;2024-01-30T03:00:17;4.80;62.40
65568;DHT22;52211;50.154;8.682;2024-01-30T03:02:47;4.80;62.40
65568;DHT22;52211;50.154;8.682;2024-01-30T03:05:14;4.80;62.50
65568;DHT22;52211;50.154;8.682;2024-01-30T03:07:41;4.80;62.50
65568;DHT22;52211;50.154;8.682;2024-01-30T03:10:10;4.80;62.50
65568;DHT22;52211;50.154;8.682;2024-01-30T03:12:39;4.80;62.50
65568;DHT22;52211;50.154;8.682;2024-01-30T03:15:09;4.70;62.50
65568;DHT22;52211;50.154;8.682;2024-01-30T03:17:43;4.70;62.50
65568;DHT22;52211;50.154;8.682;2024-01-30T03:20:11;4.70;62.60
65568;DHT22;52211;50.154;8.682;2024-01-30T03:22:40;4.70;63.10
65568;DHT22;52211;50.154;8.682;2024-01-30T03:25:09;4.70;62.60
65568;DHT22;52211;50.154;8.682;2024-01-30T03:27:38;4.70;62.60
65568;DHT22;52211;50.154;8.682;2024-01-30T03:30:10;4.70;62.60
65568;DHT22;52211;50.154;8.682;2024-01-30T03:32:37;4.70;62.50
65568;DHT22;52211;50.154;8.682;2024-01-30T03:35:04;4.70;62.50
65568;DHT22;52211;50.154;8.682;2024-01-30T03:37:32;4.70;62.70
65568;DHT22;52211;50.154;8.682;2024-01-30T03:39:59;4.70;62.70
65568;DHT22;52211;50.154;8.682;2024-01-30T03:42:26;4.70;62.80
65568;DHT22;52211;50.154;8.682;2024-01-30T03:44:53;4.70;62.80
65568;DHT22;52211;50.154;8.682;2024-01-30T03:47:21;4.60;62.80
65568;DHT22;52211;50.154;8.682;2024-01-30T03:49:50;4.70;62.80
65568;DHT22;52211;50.154;8.682;2024-01-30T03:52:20;4.70;62.80
65568;DHT22;52211;50.154;8.682;2024-01-30T03:54:49;4.70;62.80
65568;DHT22;52211;50.154;8.682;2024-01-30T03:57:16;4.70;62.70
65568;DHT22;52211;50.154;8.682;2024-01-30T03:59:45;4.60;62.70
65568;DHT22;52211;50.154;8.682;2024-01-30T04:02:12;4.60;62.80
65568;DHT22;52211;50.154;8.682;2024-01-30T04:04:42;4.60;62.80
65568;DHT22;52211;50.154;8.682;2024-01-30T04:07:16;4.60;62.80
65568;DHT22;52211;50.154;8.682;2024-01-30T04:09:44;4.60;62.80
65568;DHT22;52211;50.154;8.682;2024-01-30T04:12:11;4.60;62.80
65568;DHT22;52211;50.154;8.682;2024-01-30T04:14:43;4.60;62.80
65568;DHT22;52211;50.154;8.682;2024-01-30T04:17:15;4.60;62.80
65568;DHT22;52211;50.154;8.682;2024-01-30T04:19:46;4.70;62.90
65568;DHT22;52211;50.154;8.682;2024-01-30T04:22:15;4.70;63.00
65568;DHT22;52211;50.154;8.682;2024-01-30T04:24:47;4.70;63.00
65568;DHT22;52211;50.154;8.682;2024-01-30T04:27:16;4.70;63.10
65568;DHT22;52211;50.154;8.682;2024-01-30T04:29:46;4.80;63.10
65568;DHT22;52211;50.154;8.682;2024-01-30T04:32:17;4.80;63.20
65568;DHT22;52211;50.154;8.682;2024-01-30T04:34:48;4.80;63.10
65568;DHT22;52211;50.154;8.682;2024-01-30T04:37:18;4.90;63.10
65568;DHT22;52211;50.154;8.682;2024-01-30T04:39:45;4.80;63.00
65568;DHT22;52211;50.154;8.682;2024-01-30T04:42:13;4.90;63.00
65568;DHT22;52211;50.154;8.682;2024-01-30T04:44:42;4.90;63.00
65568;DHT22;52211;50.154;8.682;2024-01-30T04:47:09;4.80;62.90
65568;DHT22;52211;50.154;8.682;2024-01-30T04:49:42;4.80;62.90
65568;DHT22;52211;50.154;8.682;2024-01-30T04:52:09;4.80;62.90
65568;DHT22;52211;50.154;8.682;2024-01-30T04:54:39;4.80;63.60
65568;DHT22;52211;50.154;8.682;2024-01-30T04:57:18;4.70;63.00
65568;DHT22;52211;50.154;8.682;2024-01-30T04:59:47;4.70;62.90
65568;DHT22;52211;50.154;8.682;2024-01-30T05:02:15;4.70;62.90
65568;DHT22;52211;50.154;8.682;2024-01-30T05:04:44;4.70;63.00
65568;DHT22;52211;50.154;8.682;2024-01-30T05:07:14;4.70;63.00
65568;DHT22;52211;50.154;8.682;2024-01-30T05:09:40;4.70;63.10
65568;DHT22;52211;50.154;8.682;2024-01-30T05:12:10;4.70;63.10
65568;DHT22;52211;50.154;8.682;2024-01-30T05:14:36;4.60;63.00
65568;DHT22;52211;50.154;8.682;2024-01-30T05:17:08;4.60;63.00
65568;DHT22;52211;50.154;8.682;2024-01-30T05:19:42;4.60;63.10
65568;DHT22;52211;50.154;8.682;2024-01-30T05:22:12;4.60;63.10
65568;DHT22;52211;50.154;8.682;2024-01-30T05:24:45;4.60;63.10
65568;DHT22;52211;50.154;8.682;2024-01-30T05:27:14;4.60;63.10
65568;DHT22;52211;50.154;8.682;2024-01-30T05:29:43;4.60;63.20
65568;DHT22;52211;50.154;8.682;2024-01-30T05:32:13;4.60;63.20
65568;DHT22;52211;50.154;8.682;2024-01-30T05:34:40;4.60;63.30
65568;DHT22;52211;50.154;8.682;2024-01-30T05:37:12;4.60;63.20
65568;DHT22;52211;50.154;8.682;2024-01-30T05:39:43;4.60;63.30
65568;DHT22;52211;50.154;8.682;2024-01-30T05:42:14;4.60;63.20
65568;DHT22;52211;50.154;8.682;2024-01-30T05:44:43;4.60;63.30
65568;DHT22;52211;50.154;8.682;2024-01-30T05:47:10;4.60;63.30
65568;DHT22;52211;50.154;8.682;2024-01-30T05:49:37;4.60;63.30
65568;DHT22;52211;50.154;8.682;2024-01-30T05:52:07;4.60;63.30
65568;DHT22;52211;50.154;8.682;2024-01-30T05:54:34;4.60;63.30
65568;DHT22;52211;50.154;8.682;2024-01-30T05:57:03;4.60;63.40
65568;DHT22;52211;50.154;8.682;2024-01-30T05:59:32;4.60;63.30
65568;DHT22;52211;50.154;8.682;2024-01-30T06:01:59;4.60;63.30
65568;DHT22;52211;50.154;8.682;2024-01-30T06:04:27;4.60;63.20
65568;DHT22;52211;50.154;8.682;2024-01-30T06:06:56;4.60;63.30
65568;DHT22;52211;50.154;8.682;2024-01-30T06:09:33;4.50;63.30
65568;DHT22;52211;50.154;8.682;2024-01-30T06:12:02;4.50;63.30
65568;DHT22;52211;50.154;8.682;2024-01-30T06:14:31;4.50;63.30
65568;DHT22;52211;50.154;8.682;2024-01-30T06:17:00;4.50;63.30
65568;DHT22;52211;50.154;8.682;2024-01-30T06:19:27;4.50;63.30
65568;DHT22;52211;50.154;8.682;2024-01-30T06:21:54;4.50;63.30
65568;DHT22;52211;50.154;8.682;2024-01-30T06:24:26;4.50;63.30
65568;DHT22;52211;50.154;8.682;2024-01-30T06:26:56;4.50;63.40
65568;DHT22;52211;50.154;8.682;2024-01-30T06:29:26;4.50;63.30
65568;DHT22;52211;50.154;8.682;2024-01-30T06:31:56;4.50;63.30
65568;DHT22;52211;50.154;8.682;2024-01-30T06:34:28;4.50;63.30
65568;DHT22;52211;50.154;8.682;2024-01-30T06:37:00;4.50;63.40
65568;DHT22;52211;50.154;8.682;2024-01-30T06:39:27;4.50;63.40
65568;DHT22;52211;50.154;8.682;2024-01-30T06:41:54;4.50;63.40
65568;DHT22;52211;50.154;8.682;2024-01-30T06:44:23;4.40;63.40
65568;DHT22;52211;50.154;8.682;2024-01-30T06:46:56;4.40;63.90
65568;DHT22;52211;50.154;8.682;2024-01-30T06:49:25;4.40;63.40
65568;DHT22;52211;50.154;8.682;2024-01-30T06:51:52;4.40;63.50
65568;DHT22;52211;50.154;8.682;2024-01-30T06:54:21;4.40;63.50
65568;DHT22;52211;50.154;8.682;2024-01-30T06:56:48;4.40;63.60
65568;DHT22;52211;50.154;8.682;2024-01-30T06:59:25;4.40;63.60
65568;DHT22;52211;50.154;8.682;2024-01-30T07:01:54;4.40;63.60
65568;DHT22;52211;50.154;8.682;2024-01-30T07:04:21;4.40;63.50
65568;DHT22;52211;50.154;8.682;2024-01-30T07:06:50;4.40;63.50
65568;DHT22;52211;50.154;8.682;2024-01-30T07:09:19;4.40;63.60
65568;DHT22;52211;50.154;8.682;2024-01-30T07:11:49;4.40;63.50
65568;DHT22;52211;50.154;8.682;2024-01-30T07:14:20;4.40;63.50
65568;DHT22;52211;50.154;8.682;2024-01-30T07:16:47;4.40;63.60
65568;DHT22;52211;50.154;8.682;2024-01-30T07:19:16;4.40;63.60
65568;DHT22;52211;50.154;8.682;2024-01-30T07:21:46;4.40;63.60
65568;DHT22;52211;50.154;8.682;2024-01-30T07:24:15;4.40;63.60
65568;DHT22;52211;50.154;8.682;2024-01-30T07:26:44;4.40;63.60
65568;DHT22;52211;50.154;8.682;2024-01-30T07:29:11;4.40;63.60
65568;DHT22;52211;50.154;8.682;2024-01-30T07:31:38;4.40;63.70
65568;DHT22;52211;50.154;8.682;2024-01-30T07:34:07;4.40;63.70
65568;DHT22;52211;50.154;8.682;2024-01-30T07:36:39;4.40;63.70
65568;DHT22;52211;50.154;8.682;2024-01-30T07:39:06;4.40;63.70
65568;DHT22;52211;50.154;8.682;2024-01-30T07:41:33;4.50;63.80
65568;DHT22;52211;50.154;8.682;2024-01-30T07:44:00;4.50;63.80
65568;DHT22;52211;50.154;8.682;2024-01-30T07:46:27;4.50;63.80
65568;DHT22;52211;50.154;8.682;2024-01-30T07:48:54;4.50;63.90
65568;DHT22;52211;50.154;8.682;2024-01-30T07:51:22;4.50;63.80
65568;DHT22;52211;50.154;8.682;2024-01-30T07:53:52;4.50;63.80
65568;DHT22;52211;50.154;8.682;2024-01-30T07:56:21;4.60;63.90
65568;DHT22;52211;50.154;8.682;2024-01-30T07:58:48;4.60;64.00
65568;DHT22;52211;50.154;8.682;2024-01-30T08:01:19;4.60;64.00
65568;DHT22;52211;50.154;8.682;2024-01-30T08:03:46;4.70;64.00
65568;DHT22;52211;50.154;8.682;2024-01-30T08:06:18;4.70;64.00
65568;DHT22;52211;50.154;8.682;2024-01-30T08:08:46;4.80;64.10
65568;DHT22;52211;50.154;8.682;2024-01-30T08:11:13;4.80;64.10
65568;DHT22;52211;50.154;8.682;2024-01-30T08:13:40;4.90;64.20
65568;DHT22;52211;50.154;8.682;2024-01-30T08:16:07;4.90;64.20
65568;DHT22;52211;50.154;8.682;2024-01-30T08:18:43;5.00;64.30
65568;DHT22;52211;50.154;8.682;2024-01-30T08:21:12;5.00;64.20
65568;DHT22;52211;50.154;8.682;2024-01-30T08:23:44;5.10;64.20
65568;DHT22;52211;50.154;8.682;2024-01-30T08:26:10;5.10;64.30
65568;DHT22;52211;50.154;8.682;2024-01-30T08:28:40;5.20;64.30
65568;DHT22;52211;50.154;8.682;2024-01-30T08:31:15;5.30;64.50
65568;DHT22;52211;50.154;8.682;2024-01-30T08:33:45;5.40;64.60
65568;DHT22;52211;50.154;8.682;2024-01-30T08:36:17;5.50;64.40
65568;DHT22;52211;50.154;8.682;2024-01-30T08:38:44;5.60;64.50
65568;DHT22;52211;50.154;8.682;2024-01-30T08:41:14;5.60;64.50
65568;DHT22;52211;50.154;8.682;2024-01-30T08:43:43;5.70;64.40
65568;DHT22;52211;50.154;8.682;2024-01-30T08:46:11;5.80;64.60
65568;DHT22;52211;50.154;8.682;2024-01-30T08:48:41;5.90;64.50
65568;DHT22;52211;50.154;8.682;2024-01-30T08:51:10;6.00;64.70
65568;DHT22;52211;50.154;8.682;2024-01-30T08:53:37;6.10;64.50
65568;DHT22;52211;50.154;8.682;2024-01-30T08:56:06;6.20;64.60
65568;DHT22;52211;50.154;8.682;2024-01-30T08:58:38;6.20;64.70
65568;DHT22;52211;50.154;8.682;2024-01-30T09:01:09;6.30;64.70
65568;DHT22;52211;50.154;8.682;2024-01-30T09:03:36;6.40;64.60
65568;DHT22;52211;50.154;8.682;2024-01-30T09:06:10;6.40;64.50
65568;DHT22;52211;50.154;8.682;2024-01-30T09:08:38;6.60;64.70
65568;DHT22;52211;50.154;8.682;2024-01-30T09:11:15;6.60;64.60
65568;DHT22;52211;50.154;8.682;2024-01-30T09:13:44;6.70;64.60
65568;DHT22;52211;50.154;8.682;2024-01-30T09:16:11;6.80;64.50
65568;DHT22;52211;50.154;8.682;2024-01-30T09:18:40;6.90;64.60
65568;DHT22;52211;50.154;8.682;2024-01-30T09:21:09;6.90;64.20
65568;DHT22;52211;50.154;8.682;2024-01-30T09:23:39;7.00;64.40
65568;DHT22;52211;50.154;8.682;2024-01-30T09:26:08;7.00;64.40
65568;DHT22;52211;50.154;8.682;2024-01-30T09:28:35;7.10;64.40
65568;DHT22;52211;50.154;8.682;2024-01-30T09:31:09;7.20;64.60
65568;DHT22;52211;50.154;8.682;2024-01-30T09:33:37;7.20;64.60
65568;DHT22;52211;50.154;8.682;2024-01-30T09:36:07;7.30;64.50
65568;DHT22;52211;50.154;8.682;2024-01-30T09:38:36;7.30;64.40
65568;DHT22;52211;50.154;8.682;2024-01-30T09:41:09;7.40;64.40
65568;DHT22;52211;50.154;8.682;2024-01-30T09:43:39;7.40;64.50
65568;DHT22;52211;50.154;8.682;2024-01-30T09:46:12;7.50;64.30
65568;DHT22;52211;50.154;8.682;2024-01-30T09:48:41;7.50;64.20
65568;DHT22;52211;50.154;8.682;2024-01-30T09:51:09;7.60;64.20
65568;DHT22;52211;50.154;8.682;2024-01-30T09:53:37;7.60;64.20
65568;DHT22;52211;50.154;8.682;2024-01-30T09:56:08;7.70;64.20
65568;DHT22;52211;50.154;8.682;2024-01-30T09:58:35;7.70;64.20
65568;DHT22;52211;50.154;8.682;2024-01-30T10:01:08;7.80;64.10
65568;DHT22;52211;50.154;8.682;2024-01-30T10:03:37;7.80;64.20
65568;DHT22;52211;50.154;8.682;2024-01-30T10:06:05;7.80;64.10
65568;DHT22;52211;50.154;8.682;2024-01-30T10:08:35;7.90;64.10
65568;DHT22;52211;50.154;8.682;2024-01-30T10:11:02;7.90;64.10
65568;DHT22;52211;50.154;8.682;2024-01-30T10:13:32;8.00;64.10
65568;DHT22;52211;50.154;8.682;2024-01-30T10:16:01;8.00;64.00
65568;DHT22;52211;50.154;8.682;2024-01-30T10:18:29;8.10;64.00
65568;DHT22;52211;50.154;8.682;2024-01-30T10:21:01;8.10;64.00
65568;DHT22;52211;50.154;8.682;2024-01-30T10:23:29;8.10;64.00
65568;DHT22;52211;50.154;8.682;2024-01-30T10:26:10;8.20;63.90
65568;DHT22;52211;50.154;8.682;2024-01-30T10:28:37;8.20;64.00
65568;DHT22;52211;50.154;8.682;2024-01-30T10:31:08;8.20;63.90
65568;DHT22;52211;50.154;8.682;2024-01-30T10:33:39;8.20;63.80
65568;DHT22;52211;50.154;8.682;2024-01-30T10:36:06;8.30;63.90
65568;DHT22;52211;50.154;8.682;2024-01-30T10:38:41;8.30;63.90
65568;DHT22;52211;50.154;8.682;2024-01-30T10:41:13;8.40;64.10
65568;DHT22;52211;50.154;8.682;2024-01-30T10:44:02;8.40;64.00
65568;DHT22;52211;50.154;8.682;2024-01-30T10:46:35;8.40;64.10
65568;DHT22;52211;50.154;8.682;2024-01-30T10:49:09;8.50;63.90
65568;DHT22;52211;50.154;8.682;2024-01-30T10:51:39;8.50;64.00
65568;DHT22;52211;50.154;8.682;2024-01-30T10:54:13;8.50;63.90
65568;DHT22;52211;50.154;8.682;2024-01-30T10:56:45;8.60;63.90
65568;DHT22;52211;50.154;8.682;2024-01-30T10:59:18;8.60;64.00
65568;DHT22;52211;50.154;8.682;2024-01-30T11:01:46;8.70;64.10
65568;DHT22;52211;50.154;8.682;2024-01-30T11:04:19;8.70;64.00
65568;DHT22;52211;50.154;8.682;2024-01-30T11:06:49;8.80;64.00
65568;DHT22;52211;50.154;8.682;2024-01-30T11:09:17;8.90;64.10
65568;DHT22;52211;50.154;8.682;2024-01-30T11:11:55;8.90;64.00
65568;DHT22;52211;50.154;8.682;2024-01-30T11:14:30;9.00;64.00
65568;DHT22;52211;50.154;8.682;2024-01-30T11:17:03;9.10;63.90
65568;DHT22;52211;50.154;8.682;2024-01-30T11:19:31;9.20;63.80
65568;DHT22;52211;50.154;8.682;2024-01-30T11:22:01;9.20;63.60
65568;DHT22;52211;50.154;8.682;2024-01-30T11:24:28;9.30;63.70
65568;DHT22;52211;50.154;8.682;2024-01-30T11:26:58;9.30;63.60
65568;DHT22;52211;50.154;8.682;2024-01-30T11:29:31;9.40;63.60
65568;DHT22;52211;50.154;8.682;2024-01-30T11:32:05;9.40;63.50
65568;DHT22;52211;50.154;8.682;2024-01-30T11:34:34;9.40;63.50
65568;DHT22;52211;50.154;8.682;2024-01-30T11:37:09;9.50;63.50
65568;DHT22;52211;50.154;8.682;2024-01-30T11:39:39;9.50;63.50
65568;DHT22;52211;50.154;8.682;2024-01-30T11:42:10;9.50;63.40
65568;DHT22;52211;50.154;8.682;2024-01-30T11:44:40;9.60;63.40
65568;DHT22;52211;50.154;8.682;2024-01-30T11:47:12;9.60;63.40
65568;DHT22;52211;50.154;8.682;2024-01-30T11:49:43;9.70;63.40
65568;DHT22;52211;50.154;8.682;2024-01-30T11:52:13;9.80;63.40
65568;DHT22;52211;50.154;8.682;2024-01-30T11:54:43;9.90;63.50
65568;DHT22;52211;50.154;8.682;2024-01-30T11:57:10;9.90;63.50
65568;DHT22;52211;50.154;8.682;2024-01-30T11:59:39;10.00;63.50
65568;DHT22;52211;50.154;8.682;2024-01-30T12:02:06;10.10;63.60
65568;DHT22;52211;50.154;8.682;2024-01-30T12:04:33;10.30;63.60
65568;DHT22;52211;50.154;8.682;2024-01-30T12:07:02;10.30;63.50
65568;DHT22;52211;50.154;8.682;2024-01-30T12:09:30;10.40;63.40
65568;DHT22;52211;50.154;8.682;2024-01-30T12:11:59;10.50;63.30
65568;DHT22;52211;50.154;8.682;2024-01-30T12:14:27;10.60;63.20
65568;DHT22;52211;50.154;8.682;2024-01-30T12:16:58;10.80;63.10
65568;DHT22;52211;50.154;8.682;2024-01-30T12:19:25;10.80;63.00
65568;DHT22;52211;50.154;8.682;2024-01-30T12:21:58;10.90;62.90
65568;DHT22;52211;50.154;8.682;2024-01-30T12:24:27;11.00;62.80
65568;DHT22;52211;50.154;8.682;2024-01-30T12:27:04;11.00;62.70
65568;DHT22;52211;50.154;8.682;2024-01-30T12:29:33;11.00;62.50
65568;DHT22;52211;50.154;8.682;2024-01-30T12:32:06;11.10;62.50
65568;DHT22;52211;50.154;8.682;2024-01-30T12:34:41;11.10;62.40
65568;DHT22;52211;50.154;8.682;2024-01-30T12:37:23;11.10;62.30
65568;DHT22;52211;50.154;8.682;2024-01-30T12:39:54;11.20;62.40
65568;DHT22;52211;50.154;8.682;2024-01-30T12:42:21;11.10;62.30
65568;DHT22;52211;50.154;8.682;2024-01-30T12:44:49;11.20;62.30
65568;DHT22;52211;50.154;8.682;2024-01-30T12:47:21;11.20;62.40
65568;DHT22;52211;50.154;8.682;2024-01-30T12:49:50;11.20;62.30
65568;DHT22;52211;50.154;8.682;2024-01-30T12:52:21;11.20;62.20
65568;DHT22;52211;50.154;8.682;2024-01-30T12:54:49;11.30;62.30
65568;DHT22;52211;50.154;8.682;2024-01-30T12:57:17;11.30;62.40
65568;DHT22;52211;50.154;8.682;2024-01-30T12:59:46;11.40;62.30
65568;DHT22;52211;50.154;8.682;2024-01-30T13:02:16;11.50;62.30
65568;DHT22;52211;50.154;8.682;2024-01-30T13:04:43;11.50;62.10
65568;DHT22;52211;50.154;8.682;2024-01-30T13:07:20;11.50;61.90
65568;DHT22;52211;50.154;8.682;2024-01-30T13:09:47;11.50;61.90
65568;DHT22;52211;50.154;8.682;2024-01-30T13:12:19;11.60;62.20
65568;DHT22;52211;50.154;8.682;2024-01-30T13:14:50;11.80;62.40
65568;DHT22;52211;50.154;8.682;2024-01-30T13:17:19;11.90;62.30
65568;DHT22;52211;50.154;8.682;2024-01-30T13:19:49;12.00;62.20
65568;DHT22;52211;50.154;8.682;2024-01-30T13:22:18;12.20;62.00
65568;DHT22;52211;50.154;8.682;2024-01-30T13:24:50;12.30;61.80
65568;DHT22;52211;50.154;8.682;2024-01-30T13:27:17;12.30;61.50
65568;DHT22;52211;50.154;8.682;2024-01-30T13:29:44;12.40;61.40
65568;DHT22;52211;50.154;8.682;2024-01-30T13:32:11;12.40;61.30
65568;DHT22;52211;50.154;8.682;2024-01-30T13:34:41;12.30;61.20
65568;DHT22;52211;50.154;8.682;2024-01-30T13:37:16;12.30;61.20
65568;DHT22;52211;50.154;8.682;2024-01-30T13:39:45;12.30;61.20
65568;DHT22;52211;50.154;8.682;2024-01-30T13:42:12;12.30;61.20
65568;DHT22;52211;50.154;8.682;2024-01-30T13:44:39;12.30;61.10
65568;DHT22;52211;50.154;8.682;2024-01-30T13:47:07;12.20;61.00
65568;DHT22;52211;50.154;8.682;2024-01-30T13:49:36;12.20;61.00
65568;DHT22;52211;50.154;8.682;2024-01-30T13:52:05;12.10;60.90
65568;DHT22;52211;50.154;8.682;2024-01-30T13:54:35;12.10;61.00
65568;DHT22;52211;50.154;8.682;2024-01-30T13:57:04;12.10;61.20
65568;DHT22;52211;50.154;8.682;2024-01-30T13:59:34;12.00;61.20
65568;DHT22;52211;50.154;8.682;2024-01-30T14:02:04;12.00;61.20
65568;DHT22;52211;50.154;8.682;2024-01-30T14:04:35;12.00;61.20
65568;DHT22;52211;50.154;8.682;2024-01-30T14:07:04;12.00;61.20
65568;DHT22;52211;50.154;8.682;2024-01-30T14:09:33;12.00;61.20
65568;DHT22;52211;50.154;8.682;2024-01-30T14:12:03;12.00;61.20
65568;DHT22;52211;50.154;8.682;2024-01-30T14:14:30;12.00;61.20
65568;DHT22;52211;50.154;8.682;2024-01-30T14:17:02;11.90;61.20
65568;DHT22;52211;50.154;8.682;2024-01-30T14:19:32;11.90;61.20
65568;DHT22;52211;50.154;8.682;2024-01-30T14:22:04;11.90;61.30
65568;DHT22;52211;50.154;8.682;2024-01-30T14:24:33;11.90;61.30
65568;DHT22;52211;50.154;8.682;2024-01-30T14:27:00;11.90;61.30
65568;DHT22;52211;50.154;8.682;2024-01-30T14:29:27;11.90;61.30
65568;DHT22;52211;50.154;8.682;2024-01-30T14:31:57;11.90;61.20
65568;DHT22;52211;50.154;8.682;2024-01-30T14:34:24;11.90;61.30
65568;DHT22;52211;50.154;8.682;2024-01-30T14:36:58;11.90;61.30
65568;DHT22;52211;50.154;8.682;2024-01-30T14:39:28;11.80;61.20
65568;DHT22;52211;50.154;8.682;2024-01-30T14:41:55;11.80;61.20
65568;DHT22;52211;50.154;8.682;2024-01-30T14:44:22;11.80;61.20
65568;DHT22;52211;50.154;8.682;2024-01-30T14:46:51;11.70;61.20
65568;DHT22;52211;50.154;8.682;2024-01-30T14:49:18;11.70;61.30
65568;DHT22;52211;50.154;8.682;2024-01-30T14:51:46;11.70;61.20
65568;DHT22;52211;50.154;8.682;2024-01-30T14:54:18;11.70;61.20
65568;DHT22;52211;50.154;8.682;2024-01-30T14:56:47;11.60;61.50
65568;DHT22;52211;50.154;8.682;2024-01-30T14:59:14;11.60;61.30
65568;DHT22;52211;50.154;8.682;2024-01-30T15:01:41;11.60;61.40
65568;DHT22;52211;50.154;8.682;2024-01-30T15:04:11;11.50;61.30
65568;DHT22;52211;50.154;8.682;2024-01-30T15:06:40;11.50;61.40
65568;DHT22;52211;50.154;8.682;2024-01-30T15:09:22;11.50;61.40
65568;DHT22;52211;50.154;8.682;2024-01-30T15:11:52;11.50;61.40
65568;DHT22;52211;50.154;8.682;2024-01-30T15:14:23;11.40;61.40
65568;DHT22;52211;50.154;8.682;2024-01-30T15:16:50;11.40;61.40
65568;DHT22;52211;50.154;8.682;2024-01-30T15:19:17;11.40;61.50
65568;DHT22;52211;50.154;8.682;2024-01-30T15:21:47;11.40;61.50
65568;DHT22;52211;50.154;8.682;2024-01-30T15:24:16;11.40;61.50
65568;DHT22;52211;50.154;8.682;2024-01-30T15:26:44;11.40;61.60
65568;DHT22;52211;50.154;8.682;2024-01-30T15:29:11;11.40;61.60
65568;DHT22;52211;50.154;8.682;2024-01-30T15:31:38;11.40;61.60
65568;DHT22;52211;50.154;8.682;2024-01-30T15:34:08;11.40;61.60
65568;DHT22;52211;50.154;8.682;2024-01-30T15:36:38;11.30;61.50
65568;DHT22;52211;50.154;8.682;2024-01-30T15:39:05;11.30;61.50
65568;DHT22;52211;50.154;8.682;2024-01-30T15:41:34;11.30;61.60
65568;DHT22;52211;50.154;8.682;2024-01-30T15:44:03;11.30;61.60
65568;DHT22;52211;50.154;8.682;2024-01-30T15:46:30;11.30;61.60
65568;DHT22;52211;50.154;8.682;2024-01-30T15:49:00;11.30;61.60
65568;DHT22;52211;50.154;8.682;2024-01-30T15:51:31;11.20;61.60
65568;DHT22;52211;50.154;8.682;2024-01-30T15:53:58;11.20;61.70
65568;DHT22;52211;50.154;8.682;2024-01-30T15:56:27;11.20;61.70